Weather at Pocatello Regional Airport

Public forecast

Using degrees Fahrenheit for public forecast. Weather courtesy of forecast.io.

Current aviation weather report (METAR) for Pocatello Regional Airport

Retrieved 2021/01/25 01:53 UTC (1 hour ago):

KPIH 250153Z 02004KT 10SM OVC037 M02/M08 A2973 RMK AO2 SLP100 T10221083

Aviation forecast (TAF) for Pocatello Regional Airport

Retrieved 2021-01-25 00:39 UTC (2 hours ago):

TAF KPIH 242335Z 2500/2524 VRB05KT P6SM OVC040 FM250600 05006KT P6SM BKN025 FM251500 VRB03KT P6SM SCT025 SCT250